Hermanos Serdan International Airport
MMPB : now visible

Airfield :











YOU CAN JOIN US ON...

 
LOGIN :

Register | Disclaimer

   EN    FR    IT 

 









Legend :    VFR   Marginal VFR   IFR   Intensive IFR   Very Intensive IFR
Visi :
Ceiling :
>= 8 km
>= 3000ft
5 to 8 km
1000 to 3000 ft
1500m to 5 km
500 to 1000 ft
800 to 1500m
200 to 500 ft
< 800m
< 200 ft
Symbols :   Thunderstorms  Fog  Heavy snow  Heavy precipitations  Wind > 20 kt







- Airport Elevation : 7361 ft
- IATA code : PBC


MMPB - Hermanos Serdan International

CURRENT METAR :
  • 161158Z RTD 33005KT 8SM BKN015 OVC100 13/11 A3029 RMK 8/57/ HZ RTS

TAF TAF MMPB
Valid from the 16 at 06:00 until the 17 at 06:00 UTC


160430Z 1606/1706 13005KT P6SM SCT020 BKN080
FM161700 16010KT P6SM SCT020
FM162200 16010KT P6SM BKN020CB BKN100
TEMPO 1622/1702 3SM TSRA
MMFR FIR / North America



MET'MAP, your aeronautical weather chart ! - Copyright ORBIFLY December 2007 - Disclaimer

ORBIFLY MET'MAP TEAM :

Programming & Development : Alexandra Zaïnal
Concept & Development : Baudouin d'Aumeries
Co-Development & Prog : Marc-Olivier Méhu
Technical & hardware support : Manuel Goepfert

Contact : metmap@orbifly.com




SOURCES & CREDITS :

   NOAA       Earth
Advisory